Time,TemperatureF,DewpointF,PressureIn,WindDirection,WindDirectionDegrees,WindSpeedMPH,WindSpeedGustMPH,Humidity,HourlyPrecipIn,Conditions,Clouds,dailyrainin,SoftwareType,DateUTC
2013-08-11 00:01:00,79.0,30.0,-100.00,SSE,153,7.0,19.0,17,0.00,,,0.00,,2013-08-11 00:01:00,
2013-08-11 00:11:00,79.0,30.0,-100.00,SSE,153,7.0,19.0,17,0.00,,,0.00,,2013-08-11 00:11:00,
2013-08-11 00:42:00,78.0,30.0,-100.00,South,181,6.0,16.0,17,0.00,,,0.00,,2013-08-11 00:42:00,
2013-08-11 00:52:00,78.0,30.0,-100.00,South,181,6.0,16.0,17,0.00,,,0.00,,2013-08-11 00:52:00,
2013-08-11 01:01:00,78.0,30.0,-100.00,South,181,6.0,16.0,17,0.00,,,0.00,,2013-08-11 01:01:00,
2013-08-11 01:11:00,78.0,30.0,-100.00,South,181,6.0,16.0,17,0.00,,,0.00,,2013-08-11 01:11:00,
2013-08-11 01:43:00,76.0,29.0,-100.00,SSE,160,5.0,13.0,18,0.00,,,0.00,,2013-08-11 01:43:00,
2013-08-11 01:53:00,76.0,29.0,-100.00,SSE,160,5.0,13.0,18,0.00,,,0.00,,2013-08-11 01:53:00,
2013-08-11 02:02:00,76.0,29.0,-100.00,SSE,160,5.0,13.0,18,0.00,,,0.00,,2013-08-11 02:02:00,
2013-08-11 02:11:00,76.0,29.0,-100.00,SSE,160,5.0,13.0,18,0.00,,,0.00,,2013-08-11 02:11:00,
2013-08-11 02:43:00,70.0,27.0,-100.00,SSE,154,4.0,14.0,20,0.00,,,0.00,,2013-08-11 02:43:00,
2013-08-11 02:57:00,70.0,27.0,-100.00,SSE,154,4.0,14.0,20,0.00,,,0.00,,2013-08-11 02:57:00,
2013-08-11 03:12:00,70.0,27.0,-100.00,SSE,154,4.0,14.0,20,0.00,,,0.00,,2013-08-11 03:12:00,
2013-08-11 03:45:00,66.0,30.0,-100.00,SE,142,5.0,10.0,26,0.00,,,0.00,,2013-08-11 03:45:00,
2013-08-11 03:55:00,66.0,30.0,-100.00,SE,142,5.0,10.0,26,0.00,,,0.00,,2013-08-11 03:55:00,
2013-08-11 04:01:00,66.0,30.0,-100.00,SE,142,5.0,10.0,26,0.00,,,0.00,,2013-08-11 04:01:00,
2013-08-11 04:11:00,66.0,30.0,-100.00,SE,142,5.0,10.0,26,0.00,,,0.00,,2013-08-11 04:11:00,
2013-08-11 04:43:00,61.0,31.0,-100.00,SSE,158,4.0,7.0,32,0.00,,,0.00,,2013-08-11 04:43:00,
2013-08-11 04:53:00,61.0,31.0,-100.00,SSE,158,4.0,7.0,32,0.00,,,0.00,,2013-08-11 04:53:00,
2013-08-11 05:02:00,61.0,31.0,-100.00,SSE,158,4.0,7.0,32,0.00,,,0.00,,2013-08-11 05:02:00,
2013-08-11 05:13:00,61.0,31.0,-100.00,SSE,158,4.0,7.0,32,0.00,,,0.00,,2013-08-11 05:13:00,
2013-08-11 05:55:00,56.0,33.0,-100.00,SSE,147,4.0,6.0,42,0.00,,,0.00,,2013-08-11 05:55:00,
2013-08-11 06:02:00,56.0,33.0,-100.00,SSE,147,4.0,6.0,42,0.00,,,0.00,,2013-08-11 06:02:00,
2013-08-11 06:13:00,56.0,33.0,-100.00,SSE,147,4.0,6.0,42,0.00,,,0.00,,2013-08-11 06:13:00,
2013-08-11 06:49:00,53.0,33.0,-100.00,SE,140,2.0,5.0,46,0.00,,,0.00,,2013-08-11 06:49:00,
2013-08-11 06:56:00,53.0,33.0,-100.00,SE,140,2.0,5.0,46,0.00,,,0.00,,2013-08-11 06:56:00,
2013-08-11 07:03:00,53.0,33.0,-100.00,SE,140,2.0,5.0,46,0.00,,,0.00,,2013-08-11 07:03:00,
2013-08-11 07:13:00,53.0,33.0,-100.00,SE,140,2.0,5.0,46,0.00,,,0.00,,2013-08-11 07:13:00,
2013-08-11 07:46:00,61.0,42.0,-100.00,SE,128,8.0,12.0,49,0.00,,,0.00,,2013-08-11 07:46:00,
2013-08-11 07:55:00,61.0,42.0,-100.00,SE,128,8.0,12.0,49,0.00,,,0.00,,2013-08-11 07:55:00,
2013-08-11 08:04:00,61.0,42.0,-100.00,SE,128,8.0,12.0,49,0.00,,,0.00,,2013-08-11 08:04:00,
2013-08-11 08:13:00,61.0,42.0,-100.00,SE,128,8.0,12.0,49,0.00,,,0.00,,2013-08-11 08:13:00,
2013-08-11 08:49:00,60.0,47.0,-100.00,SE,134,10.0,19.0,61,0.00,,,0.00,,2013-08-11 08:49:00,
2013-08-11 08:58:00,60.0,47.0,-100.00,SE,134,10.0,19.0,61,0.00,,,0.00,,2013-08-11 08:58:00,
2013-08-11 09:12:00,60.0,47.0,-100.00,SE,134,10.0,19.0,61,0.00,,,0.00,,2013-08-11 09:12:00,
2013-08-11 09:44:00,60.0,48.0,-100.00,SE,130,9.0,17.0,64,0.00,,,0.00,,2013-08-11 09:44:00,
2013-08-11 09:59:00,60.0,48.0,-100.00,SE,130,9.0,17.0,64,0.00,,,0.00,,2013-08-11 09:59:00,
2013-08-11 10:13:00,60.0,48.0,-100.00,SE,130,9.0,17.0,64,0.00,,,0.00,,2013-08-11 10:13:00,
2013-08-11 10:47:00,60.0,44.0,-100.00,ESE,118,6.0,15.0,55,0.00,,,0.00,,2013-08-11 10:47:00,
2013-08-11 10:57:00,60.0,44.0,-100.00,ESE,118,6.0,15.0,55,0.00,,,0.00,,2013-08-11 10:57:00,
2013-08-11 11:04:00,60.0,44.0,-100.00,ESE,118,6.0,15.0,55,0.00,,,0.00,,2013-08-11 11:04:00,
2013-08-11 11:12:00,60.0,44.0,-100.00,ESE,118,6.0,15.0,55,0.00,,,0.00,,2013-08-11 11:12:00,
2013-08-11 11:49:00,55.0,41.0,-100.00,SE,144,4.0,11.0,58,0.00,,,-99.99,,2013-08-11 11:49:00,
2013-08-11 11:58:00,55.0,41.0,-100.00,SE,144,4.0,11.0,58,0.00,,,-99.99,,2013-08-11 11:58:00,
2013-08-11 12:04:00,55.0,41.0,-100.00,SE,144,4.0,11.0,58,0.00,,,-99.99,,2013-08-11 12:04:00,
2013-08-11 12:12:00,55.0,41.0,-100.00,SE,144,4.0,11.0,58,0.00,,,-99.99,,2013-08-11 12:12:00,
2013-08-11 12:47:00,60.0,37.0,-100.00,SE,125,5.0,9.0,43,0.00,,,-99.99,,2013-08-11 12:47:00,
2013-08-11 12:55:00,60.0,37.0,-100.00,SE,125,5.0,9.0,43,0.00,,,-99.99,,2013-08-11 12:55:00,
2013-08-11 13:03:00,60.0,37.0,-100.00,SE,125,5.0,9.0,43,0.00,,,-99.99,,2013-08-11 13:03:00,
2013-08-11 13:12:00,60.0,37.0,-100.00,SE,125,5.0,9.0,43,0.00,,,-99.99,,2013-08-11 13:12:00,
2013-08-11 15:58:00,71.0,40.0,-100.00,ESE,116,6.0,10.0,33,0.00,,,0.00,,2013-08-11 15:58:00,
2013-08-11 16:03:00,71.0,40.0,-100.00,ESE,116,6.0,10.0,33,0.00,,,0.00,,2013-08-11 16:03:00,
2013-08-11 16:12:00,71.0,40.0,-100.00,ESE,116,6.0,10.0,33,0.00,,,0.00,,2013-08-11 16:12:00,
2013-08-11 16:47:00,74.0,44.0,-100.00,ESE,103,7.0,11.0,34,0.00,,,0.00,,2013-08-11 16:47:00,
2013-08-11 16:56:00,74.0,44.0,-100.00,ESE,103,7.0,11.0,34,0.00,,,0.00,,2013-08-11 16:56:00,
2013-08-11 17:12:00,74.0,44.0,-100.00,ESE,103,7.0,11.0,34,0.00,,,0.00,,2013-08-11 17:12:00,
2013-08-11 17:56:00,75.0,44.0,-100.00,East,100,8.0,16.0,33,0.00,,,-99.99,,2013-08-11 17:56:00,
2013-08-11 18:04:00,75.0,44.0,-100.00,East,100,8.0,16.0,33,0.00,,,-99.99,,2013-08-11 18:04:00,
2013-08-11 18:14:00,75.0,44.0,-100.00,East,100,8.0,16.0,33,0.00,,,-99.99,,2013-08-11 18:14:00,
2013-08-11 18:55:00,78.0,43.0,-100.00,ESE,117,6.0,14.0,29,0.00,,,0.00,,2013-08-11 18:55:00,
2013-08-11 19:04:00,78.0,43.0,-100.00,ESE,117,6.0,14.0,29,0.00,,,0.00,,2013-08-11 19:04:00,
2013-08-11 19:12:00,78.0,43.0,-100.00,ESE,117,6.0,14.0,29,0.00,,,0.00,,2013-08-11 19:12:00,
2013-08-11 19:51:00,78.0,42.0,-100.00,SE,141,7.0,18.0,28,0.00,,,0.00,,2013-08-11 19:51:00,
2013-08-11 19:58:00,78.0,42.0,-100.00,SE,141,7.0,18.0,28,0.00,,,0.00,,2013-08-11 19:58:00,
2013-08-11 20:16:00,78.0,42.0,-100.00,SE,141,7.0,18.0,28,0.00,,,0.00,,2013-08-11 20:16:00,
2013-08-11 20:49:00,80.0,43.0,-100.00,SW,217,6.0,19.0,27,0.00,,,0.00,,2013-08-11 20:49:00,
2013-08-11 20:57:00,80.0,43.0,-100.00,SW,217,6.0,19.0,27,0.00,,,0.00,,2013-08-11 20:57:00,
2013-08-11 21:02:00,80.0,43.0,-100.00,SW,217,6.0,19.0,27,0.00,,,0.00,,2013-08-11 21:02:00,
2013-08-11 21:11:00,80.0,43.0,-100.00,SW,217,6.0,19.0,27,0.00,,,0.00,,2013-08-11 21:11:00,
2013-08-11 21:49:00,79.0,41.0,-100.00,South,180,7.0,16.0,26,0.00,,,0.00,,2013-08-11 21:49:00,
2013-08-11 21:57:00,79.0,41.0,-100.00,South,180,7.0,16.0,26,0.00,,,0.00,,2013-08-11 21:57:00,
2013-08-11 22:03:00,79.0,41.0,-100.00,South,180,7.0,16.0,26,0.00,,,0.00,,2013-08-11 22:03:00,
2013-08-11 22:13:00,79.0,41.0,-100.00,South,180,7.0,16.0,26,0.00,,,0.00,,2013-08-11 22:13:00,
2013-08-11 22:47:00,78.0,42.0,-100.00,South,186,5.0,17.0,28,0.00,,,0.00,,2013-08-11 22:47:00,
2013-08-11 22:56:00,78.0,42.0,-100.00,South,186,5.0,17.0,28,0.00,,,0.00,,2013-08-11 22:56:00,
2013-08-11 23:12:00,78.0,42.0,-100.00,South,186,5.0,17.0,28,0.00,,,0.00,,2013-08-11 23:12:00,
2013-08-11 23:48:00,79.0,42.0,-100.00,SSW,206,4.0,17.0,27,0.00,,,0.00,,2013-08-11 23:48:00,
2013-08-11 23:57:00,79.0,42.0,-100.00,SSW,206,4.0,17.0,27,0.00,,,0.00,,2013-08-11 23:57:00,